Ana Sayfa
METAR-TAF:

METAR-TAF

Havaalanları :

Guthrie, Oklahoma, Amerika Birleşik Devletleri

Enlem: 35-51-07N, Boylam: 097-24-27W, yükseklik: 327 m

Güncel hava durumu gözlemi

Rapor saat 13:53 UTC de 58 dakika önce yapıldı.
Rüzgar güneydan 13 kt
Sıcaklık 30°C
Nem 66%
Basınç 1012 hPa
Görüş mesafesi: 16.1 km
Açık gökyüzü

METAR: KGOK 251353Z AUTO 19013KT 10SM CLR 30/23 A2989 RMK AO2 SLP110 T03000228

Saat: 09:51 (14:51 UTC)


TAF: eksik

4.000'den fazla havaalanı için hava durumu gözlemleri ve tahminleri (METAR ve TAF raporları).

Kullanılabilir istasyonlar harita üzerinde sarı ve kırmızı noktalarla gösterilir.

İstasyonun adını görmek için fareyi noktanın üzerinde gezdirin.

Sonrasında hava gözlem ve tahminlerini görmek için tıklayın.

Haritayı değiştirmek için: yaklaştırmak için siyah artı işaretli yeşil düğmeye ve uzaklaştırmak için de eksi işaretli düğmeye hızla tıklayın; bitişik haritalar için yeşil okları kullanın.


METAR-TAF: